sensor_id;sensor_type;location;lat;lon;timestamp;P1;durP1;ratioP1;P2;durP2;ratioP2
78288;SDS011;67539;48.752;12.922;2023-04-03T00:00:49;3.30;;;3.10;;
78288;SDS011;67539;48.752;12.922;2023-04-03T00:03:17;3.90;;;3.67;;
78288;SDS011;67539;48.752;12.922;2023-04-03T00:05:46;3.55;;;3.25;;
78288;SDS011;67539;48.752;12.922;2023-04-03T00:08:14;3.67;;;3.47;;
78288;SDS011;67539;48.752;12.922;2023-04-03T00:10:42;3.85;;;3.60;;
78288;SDS011;67539;48.752;12.922;2023-04-03T00:13:10;4.13;;;3.83;;
78288;SDS011;67539;48.752;12.922;2023-04-03T00:15:39;4.10;;;3.55;;
78288;SDS011;67539;48.752;12.922;2023-04-03T00:18:09;4.20;;;3.90;;
78288;SDS011;67539;48.752;12.922;2023-04-03T00:20:37;3.22;;;3.03;;
78288;SDS011;67539;48.752;12.922;2023-04-03T00:23:05;4.07;;;3.78;;
78288;SDS011;67539;48.752;12.922;2023-04-03T00:25:33;3.90;;;3.60;;
78288;SDS011;67539;48.752;12.922;2023-04-03T00:28:02;3.30;;;3.10;;
78288;SDS011;67539;48.752;12.922;2023-04-03T00:30:30;4.10;;;3.80;;
78288;SDS011;67539;48.752;12.922;2023-04-03T00:32:59;3.75;;;3.55;;
78288;SDS011;67539;48.752;12.922;2023-04-03T00:35:29;3.38;;;3.17;;
78288;SDS011;67539;48.752;12.922;2023-04-03T00:37:57;3.58;;;3.38;;
78288;SDS011;67539;48.752;12.922;2023-04-03T00:40:26;3.83;;;3.60;;
78288;SDS011;67539;48.752;12.922;2023-04-03T00:42:56;3.42;;;3.20;;
78288;SDS011;67539;48.752;12.922;2023-04-03T00:45:28;3.65;;;3.38;;
78288;SDS011;67539;48.752;12.922;2023-04-03T00:48:00;4.57;;;4.18;;
78288;SDS011;67539;48.752;12.922;2023-04-03T00:50:33;4.00;;;3.80;;
78288;SDS011;67539;48.752;12.922;2023-04-03T00:53:05;3.30;;;3.10;;
78288;SDS011;67539;48.752;12.922;2023-04-03T00:55:36;3.60;;;3.40;;
78288;SDS011;67539;48.752;12.922;2023-04-03T00:58:05;3.60;;;3.40;;
78288;SDS011;67539;48.752;12.922;2023-04-03T01:00:36;5.07;;;3.60;;
78288;SDS011;67539;48.752;12.922;2023-04-03T01:03:06;3.75;;;3.45;;
78288;SDS011;67539;48.752;12.922;2023-04-03T01:05:37;3.90;;;3.70;;
78288;SDS011;67539;48.752;12.922;2023-04-03T01:08:05;3.60;;;3.40;;
78288;SDS011;67539;48.752;12.922;2023-04-03T01:10:33;3.33;;;3.03;;
78288;SDS011;67539;48.752;12.922;2023-04-03T01:13:02;3.40;;;3.20;;
78288;SDS011;67539;48.752;12.922;2023-04-03T01:15:46;3.65;;;3.45;;
78288;SDS011;67539;48.752;12.922;2023-04-03T01:18:14;3.30;;;3.10;;
78288;SDS011;67539;48.752;12.922;2023-04-03T01:23:49;3.40;;;3.20;;
78288;SDS011;67539;48.752;12.922;2023-04-03T01:26:35;4.15;;;3.42;;
78288;SDS011;67539;48.752;12.922;2023-04-03T01:29:04;3.45;;;3.25;;
78288;SDS011;67539;48.752;12.922;2023-04-03T01:31:41;3.63;;;3.42;;
78288;SDS011;67539;48.752;12.922;2023-04-03T01:34:14;3.65;;;3.35;;
78288;SDS011;67539;48.752;12.922;2023-04-03T01:36:42;3.40;;;3.20;;
78288;SDS011;67539;48.752;12.922;2023-04-03T01:39:10;4.22;;;3.92;;
78288;SDS011;67539;48.752;12.922;2023-04-03T01:41:38;3.30;;;3.20;;
78288;SDS011;67539;48.752;12.922;2023-04-03T01:44:12;3.45;;;3.15;;
78288;SDS011;67539;48.752;12.922;2023-04-03T01:46:41;3.45;;;3.25;;
78288;SDS011;67539;48.752;12.922;2023-04-03T01:49:10;3.72;;;3.45;;
78288;SDS011;67539;48.752;12.922;2023-04-03T01:51:38;3.35;;;3.15;;
78288;SDS011;67539;48.752;12.922;2023-04-03T01:54:06;3.40;;;3.20;;
78288;SDS011;67539;48.752;12.922;2023-04-03T01:56:33;6.85;;;3.67;;
78288;SDS011;67539;48.752;12.922;2023-04-03T01:59:02;3.55;;;3.30;;
78288;SDS011;67539;48.752;12.922;2023-04-03T02:01:30;3.30;;;3.00;;
78288;SDS011;67539;48.752;12.922;2023-04-03T02:03:59;3.83;;;3.53;;
78288;SDS011;67539;48.752;12.922;2023-04-03T02:06:28;4.28;;;3.88;;
78288;SDS011;67539;48.752;12.922;2023-04-03T02:08:56;3.63;;;3.42;;
78288;SDS011;67539;48.752;12.922;2023-04-03T02:11:24;3.40;;;3.20;;
78288;SDS011;67539;48.752;12.922;2023-04-03T02:13:52;3.88;;;3.50;;
78288;SDS011;67539;48.752;12.922;2023-04-03T02:16:20;3.45;;;3.25;;
78288;SDS011;67539;48.752;12.922;2023-04-03T02:18:48;3.78;;;3.55;;
78288;SDS011;67539;48.752;12.922;2023-04-03T02:21:18;3.42;;;3.22;;
78288;SDS011;67539;48.752;12.922;2023-04-03T02:23:47;3.67;;;3.47;;
78288;SDS011;67539;48.752;12.922;2023-04-03T02:26:15;3.70;;;3.35;;
78288;SDS011;67539;48.752;12.922;2023-04-03T02:28:44;3.47;;;3.22;;
78288;SDS011;67539;48.752;12.922;2023-04-03T02:31:12;3.50;;;3.25;;
78288;SDS011;67539;48.752;12.922;2023-04-03T02:33:43;3.80;;;3.60;;
78288;SDS011;67539;48.752;12.922;2023-04-03T02:36:13;3.42;;;3.20;;
78288;SDS011;67539;48.752;12.922;2023-04-03T02:38:47;4.47;;;4.18;;
78288;SDS011;67539;48.752;12.922;2023-04-03T02:41:15;3.38;;;3.17;;
78288;SDS011;67539;48.752;12.922;2023-04-03T02:43:43;3.85;;;3.65;;
78288;SDS011;67539;48.752;12.922;2023-04-03T02:46:12;5.50;;;5.10;;
78288;SDS011;67539;48.752;12.922;2023-04-03T02:48:41;3.20;;;3.00;;
78288;SDS011;67539;48.752;12.922;2023-04-03T02:51:09;3.20;;;3.00;;
78288;SDS011;67539;48.752;12.922;2023-04-03T02:53:37;3.47;;;3.17;;
78288;SDS011;67539;48.752;12.922;2023-04-03T02:56:14;3.38;;;3.17;;
78288;SDS011;67539;48.752;12.922;2023-04-03T02:58:43;3.35;;;3.05;;
78288;SDS011;67539;48.752;12.922;2023-04-03T03:01:11;5.50;;;3.00;;
78288;SDS011;67539;48.752;12.922;2023-04-03T03:03:40;2.70;;;2.50;;
78288;SDS011;67539;48.752;12.922;2023-04-03T03:06:08;3.47;;;3.28;;
78288;SDS011;67539;48.752;12.922;2023-04-03T03:08:39;2.90;;;2.70;;
78288;SDS011;67539;48.752;12.922;2023-04-03T03:11:08;3.70;;;3.40;;
78288;SDS011;67539;48.752;12.922;2023-04-03T03:13:38;3.47;;;3.28;;
78288;SDS011;67539;48.752;12.922;2023-04-03T03:16:06;3.25;;;2.90;;
78288;SDS011;67539;48.752;12.922;2023-04-03T03:18:34;2.90;;;2.70;;
78288;SDS011;67539;48.752;12.922;2023-04-03T03:21:03;2.83;;;2.60;;
78288;SDS011;67539;48.752;12.922;2023-04-03T03:23:32;3.45;;;3.25;;
78288;SDS011;67539;48.752;12.922;2023-04-03T03:26:00;3.15;;;2.95;;
78288;SDS011;67539;48.752;12.922;2023-04-03T03:28:30;2.75;;;2.58;;
78288;SDS011;67539;48.752;12.922;2023-04-03T03:31:00;3.42;;;3.22;;
78288;SDS011;67539;48.752;12.922;2023-04-03T03:33:30;3.40;;;2.75;;
78288;SDS011;67539;48.752;12.922;2023-04-03T03:35:59;2.53;;;2.42;;
78288;SDS011;67539;48.752;12.922;2023-04-03T03:38:28;3.00;;;2.80;;
78288;SDS011;67539;48.752;12.922;2023-04-03T03:40:57;2.90;;;2.70;;
78288;SDS011;67539;48.752;12.922;2023-04-03T03:43:27;2.90;;;2.70;;
78288;SDS011;67539;48.752;12.922;2023-04-03T03:45:56;2.78;;;2.58;;
78288;SDS011;67539;48.752;12.922;2023-04-03T03:48:27;3.20;;;3.00;;
78288;SDS011;67539;48.752;12.922;2023-04-03T03:50:55;3.10;;;2.63;;
78288;SDS011;67539;48.752;12.922;2023-04-03T03:53:27;6.88;;;4.78;;
78288;SDS011;67539;48.752;12.922;2023-04-03T03:55:59;3.38;;;3.17;;
78288;SDS011;67539;48.752;12.922;2023-04-03T03:58:29;3.88;;;2.92;;
78288;SDS011;67539;48.752;12.922;2023-04-03T04:01:00;4.22;;;3.38;;
78288;SDS011;67539;48.752;12.922;2023-04-03T04:03:31;3.35;;;3.15;;
78288;SDS011;67539;48.752;12.922;2023-04-03T04:06:00;4.35;;;3.30;;
78288;SDS011;67539;48.752;12.922;2023-04-03T04:08:28;3.55;;;3.08;;
78288;SDS011;67539;48.752;12.922;2023-04-03T04:10:57;5.97;;;4.60;;
78288;SDS011;67539;48.752;12.922;2023-04-03T04:13:25;4.28;;;3.88;;
78288;SDS011;67539;48.752;12.922;2023-04-03T04:15:53;3.45;;;3.25;;
78288;SDS011;67539;48.752;12.922;2023-04-03T04:18:21;4.00;;;3.70;;
78288;SDS011;67539;48.752;12.922;2023-04-03T04:20:51;3.42;;;3.22;;
78288;SDS011;67539;48.752;12.922;2023-04-03T04:23:20;3.65;;;3.33;;
78288;SDS011;67539;48.752;12.922;2023-04-03T04:25:50;4.40;;;4.00;;
78288;SDS011;67539;48.752;12.922;2023-04-03T04:28:18;3.78;;;3.47;;
78288;SDS011;67539;48.752;12.922;2023-04-03T04:30:49;5.10;;;4.60;;
78288;SDS011;67539;48.752;12.922;2023-04-03T04:33:18;3.70;;;3.40;;
78288;SDS011;67539;48.752;12.922;2023-04-03T04:35:46;4.18;;;3.80;;
78288;SDS011;67539;48.752;12.922;2023-04-03T04:38:18;4.70;;;4.35;;
78288;SDS011;67539;48.752;12.922;2023-04-03T04:40:48;3.63;;;3.40;;
78288;SDS011;67539;48.752;12.922;2023-04-03T04:43:16;4.60;;;4.20;;
78288;SDS011;67539;48.752;12.922;2023-04-03T04:45:47;6.40;;;4.18;;
78288;SDS011;67539;48.752;12.922;2023-04-03T04:48:18;7.13;;;4.10;;
78288;SDS011;67539;48.752;12.922;2023-04-03T04:50:46;4.97;;;4.22;;
78288;SDS011;67539;48.752;12.922;2023-04-03T04:53:14;6.00;;;5.25;;
78288;SDS011;67539;48.752;12.922;2023-04-03T04:55:43;5.45;;;5.05;;
78288;SDS011;67539;48.752;12.922;2023-04-03T04:58:11;5.03;;;4.55;;
78288;SDS011;67539;48.752;12.922;2023-04-03T05:00:40;5.40;;;4.90;;
78288;SDS011;67539;48.752;12.922;2023-04-03T05:03:09;5.20;;;4.72;;
78288;SDS011;67539;48.752;12.922;2023-04-03T05:05:38;5.07;;;4.68;;
78288;SDS011;67539;48.752;12.922;2023-04-03T05:08:06;7.18;;;4.88;;
78288;SDS011;67539;48.752;12.922;2023-04-03T05:10:38;4.05;;;3.85;;
78288;SDS011;67539;48.752;12.922;2023-04-03T05:13:08;5.03;;;4.60;;
78288;SDS011;67539;48.752;12.922;2023-04-03T05:15:36;5.05;;;4.55;;
78288;SDS011;67539;48.752;12.922;2023-04-03T05:18:05;4.80;;;4.35;;
78288;SDS011;67539;48.752;12.922;2023-04-03T05:20:33;4.75;;;4.35;;
78288;SDS011;67539;48.752;12.922;2023-04-03T05:23:01;5.53;;;5.03;;
78288;SDS011;67539;48.752;12.922;2023-04-03T05:25:32;4.63;;;4.32;;
78288;SDS011;67539;48.752;12.922;2023-04-03T05:28:02;5.40;;;5.10;;
78288;SDS011;67539;48.752;12.922;2023-04-03T05:30:31;6.25;;;5.60;;
78288;SDS011;67539;48.752;12.922;2023-04-03T05:33:01;5.25;;;4.85;;
78288;SDS011;67539;48.752;12.922;2023-04-03T05:35:36;7.03;;;6.15;;
78288;SDS011;67539;48.752;12.922;2023-04-03T05:38:10;4.88;;;4.57;;
78288;SDS011;67539;48.752;12.922;2023-04-03T05:40:39;5.93;;;4.80;;
78288;SDS011;67539;48.752;12.922;2023-04-03T05:43:07;4.80;;;4.50;;
78288;SDS011;67539;48.752;12.922;2023-04-03T05:45:39;5.00;;;4.60;;
78288;SDS011;67539;48.752;12.922;2023-04-03T05:48:10;5.15;;;4.65;;
78288;SDS011;67539;48.752;12.922;2023-04-03T05:50:39;4.70;;;4.40;;
78288;SDS011;67539;48.752;12.922;2023-04-03T05:53:14;5.20;;;4.70;;
78288;SDS011;67539;48.752;12.922;2023-04-03T05:55:46;4.90;;;4.50;;
78288;SDS011;67539;48.752;12.922;2023-04-03T05:58:14;5.07;;;4.60;;
78288;SDS011;67539;48.752;12.922;2023-04-03T06:00:46;6.20;;;5.60;;
78288;SDS011;67539;48.752;12.922;2023-04-03T06:03:15;7.40;;;6.80;;
78288;SDS011;67539;48.752;12.922;2023-04-03T06:05:44;6.55;;;6.00;;
78288;SDS011;67539;48.752;12.922;2023-04-03T06:08:12;6.60;;;5.97;;
78288;SDS011;67539;48.752;12.922;2023-04-03T06:10:40;5.50;;;5.00;;
78288;SDS011;67539;48.752;12.922;2023-04-03T06:13:08;6.22;;;5.25;;
78288;SDS011;67539;48.752;12.922;2023-04-03T06:15:36;5.90;;;5.30;;
78288;SDS011;67539;48.752;12.922;2023-04-03T06:18:09;4.88;;;4.35;;
78288;SDS011;67539;48.752;12.922;2023-04-03T06:20:37;6.03;;;4.88;;
78288;SDS011;67539;48.752;12.922;2023-04-03T06:23:05;5.32;;;4.82;;
78288;SDS011;67539;48.752;12.922;2023-04-03T06:25:34;5.60;;;5.10;;
78288;SDS011;67539;48.752;12.922;2023-04-03T06:28:02;5.43;;;4.95;;
78288;SDS011;67539;48.752;12.922;2023-04-03T06:30:30;5.68;;;5.18;;
78288;SDS011;67539;48.752;12.922;2023-04-03T06:32:58;6.03;;;5.53;;
78288;SDS011;67539;48.752;12.922;2023-04-03T06:35:28;5.65;;;5.25;;
78288;SDS011;67539;48.752;12.922;2023-04-03T06:37:56;6.10;;;5.50;;
78288;SDS011;67539;48.752;12.922;2023-04-03T06:40:24;5.93;;;5.43;;
78288;SDS011;67539;48.752;12.922;2023-04-03T06:42:53;6.20;;;5.70;;
78288;SDS011;67539;48.752;12.922;2023-04-03T06:45:21;6.10;;;5.50;;
78288;SDS011;67539;48.752;12.922;2023-04-03T06:47:51;6.00;;;5.50;;
78288;SDS011;67539;48.752;12.922;2023-04-03T06:50:19;6.90;;;6.00;;
78288;SDS011;67539;48.752;12.922;2023-04-03T06:52:49;9.95;;;6.15;;
78288;SDS011;67539;48.752;12.922;2023-04-03T06:55:17;13.25;;;10.18;;
78288;SDS011;67539;48.752;12.922;2023-04-03T06:57:45;7.72;;;6.93;;
78288;SDS011;67539;48.752;12.922;2023-04-03T07:00:15;7.13;;;6.47;;
78288;SDS011;67539;48.752;12.922;2023-04-03T07:02:43;6.65;;;6.05;;
78288;SDS011;67539;48.752;12.922;2023-04-03T07:05:12;6.45;;;5.95;;
78288;SDS011;67539;48.752;12.922;2023-04-03T07:07:40;6.68;;;6.00;;
78288;SDS011;67539;48.752;12.922;2023-04-03T07:10:09;6.32;;;5.72;;
78288;SDS011;67539;48.752;12.922;2023-04-03T07:12:37;6.95;;;6.35;;
78288;SDS011;67539;48.752;12.922;2023-04-03T07:15:06;5.75;;;5.25;;
78288;SDS011;67539;48.752;12.922;2023-04-03T07:17:35;5.15;;;4.75;;
78288;SDS011;67539;48.752;12.922;2023-04-03T07:20:03;5.55;;;5.05;;
78288;SDS011;67539;48.752;12.922;2023-04-03T07:22:32;6.18;;;5.57;;
78288;SDS011;67539;48.752;12.922;2023-04-03T07:25:00;5.55;;;5.05;;
78288;SDS011;67539;48.752;12.922;2023-04-03T07:27:30;4.90;;;4.53;;
78288;SDS011;67539;48.752;12.922;2023-04-03T07:29:58;5.93;;;5.43;;
78288;SDS011;67539;48.752;12.922;2023-04-03T07:32:26;4.70;;;4.30;;
78288;SDS011;67539;48.752;12.922;2023-04-03T07:34:54;3.92;;;3.70;;
78288;SDS011;67539;48.752;12.922;2023-04-03T07:37:22;4.75;;;4.10;;
78288;SDS011;67539;48.752;12.922;2023-04-03T07:39:50;5.00;;;3.50;;
78288;SDS011;67539;48.752;12.922;2023-04-03T07:42:18;3.47;;;3.17;;
78288;SDS011;67539;48.752;12.922;2023-04-03T07:44:48;4.13;;;3.22;;
78288;SDS011;67539;48.752;12.922;2023-04-03T07:47:15;4.00;;;3.40;;
78288;SDS011;67539;48.752;12.922;2023-04-03T07:49:44;3.43;;;3.10;;
78288;SDS011;67539;48.752;12.922;2023-04-03T07:52:12;2.73;;;2.60;;
78288;SDS011;67539;48.752;12.922;2023-04-03T07:54:41;3.50;;;3.27;;
78288;SDS011;67539;48.752;12.922;2023-04-03T07:57:09;5.23;;;2.87;;
78288;SDS011;67539;48.752;12.922;2023-04-03T07:59:37;2.58;;;2.38;;
78288;SDS011;67539;48.752;12.922;2023-04-03T08:02:08;3.42;;;3.13;;
78288;SDS011;67539;48.752;12.922;2023-04-03T08:04:36;4.57;;;2.60;;
78288;SDS011;67539;48.752;12.922;2023-04-03T08:07:05;3.90;;;2.90;;
78288;SDS011;67539;48.752;12.922;2023-04-03T08:09:33;3.20;;;2.47;;
78288;SDS011;67539;48.752;12.922;2023-04-03T08:12:01;3.37;;;2.80;;
78288;SDS011;67539;48.752;12.922;2023-04-03T08:14:30;3.70;;;2.43;;
78288;SDS011;67539;48.752;12.922;2023-04-03T08:17:00;2.27;;;2.17;;
78288;SDS011;67539;48.752;12.922;2023-04-03T08:19:32;2.03;;;1.93;;
78288;SDS011;67539;48.752;12.922;2023-04-03T08:22:00;3.90;;;2.20;;
78288;SDS011;67539;48.752;12.922;2023-04-03T08:24:29;2.03;;;1.93;;
78288;SDS011;67539;48.752;12.922;2023-04-03T08:26:57;2.30;;;2.10;;
78288;SDS011;67539;48.752;12.922;2023-04-03T08:29:25;2.87;;;2.70;;
78288;SDS011;67539;48.752;12.922;2023-04-03T08:31:53;3.13;;;2.87;;
78288;SDS011;67539;48.752;12.922;2023-04-03T08:34:21;4.77;;;1.93;;
78288;SDS011;67539;48.752;12.922;2023-04-03T08:36:51;2.30;;;2.10;;
78288;SDS011;67539;48.752;12.922;2023-04-03T08:39:19;2.07;;;1.50;;
78288;SDS011;67539;48.752;12.922;2023-04-03T08:41:47;1.70;;;1.60;;
78288;SDS011;67539;48.752;12.922;2023-04-03T08:44:17;3.53;;;3.03;;
78288;SDS011;67539;48.752;12.922;2023-04-03T08:46:55;2.20;;;1.47;;
78288;SDS011;67539;48.752;12.922;2023-04-03T08:49:30;7.00;;;1.50;;
78288;SDS011;67539;48.752;12.922;2023-04-03T08:52:02;1.00;;;0.90;;
78288;SDS011;67539;48.752;12.922;2023-04-03T08:54:35;1.30;;;1.20;;
78288;SDS011;67539;48.752;12.922;2023-04-03T08:57:09;1.37;;;1.27;;
78288;SDS011;67539;48.752;12.922;2023-04-03T08:59:39;1.00;;;1.00;;
78288;SDS011;67539;48.752;12.922;2023-04-03T09:02:14;1.10;;;1.00;;
78288;SDS011;67539;48.752;12.922;2023-04-03T09:04:53;2.23;;;1.73;;
78288;SDS011;67539;48.752;12.922;2023-04-03T09:07:25;1.70;;;1.60;;
78288;SDS011;67539;48.752;12.922;2023-04-03T09:09:59;9.10;;;5.83;;
78288;SDS011;67539;48.752;12.922;2023-04-03T09:12:32;3.47;;;2.27;;
78288;SDS011;67539;48.752;12.922;2023-04-03T09:15:08;1.80;;;1.40;;
78288;SDS011;67539;48.752;12.922;2023-04-03T09:17:53;1.73;;;1.60;;
78288;SDS011;67539;48.752;12.922;2023-04-03T09:20:30;2.87;;;2.67;;
78288;SDS011;67539;48.752;12.922;2023-04-03T09:23:11;1.90;;;1.50;;
78288;SDS011;67539;48.752;12.922;2023-04-03T09:25:44;1.30;;;1.20;;
78288;SDS011;67539;48.752;12.922;2023-04-03T09:28:13;2.83;;;2.30;;
78288;SDS011;67539;48.752;12.922;2023-04-03T09:30:41;2.40;;;2.20;;
78288;SDS011;67539;48.752;12.922;2023-04-03T09:33:09;1.40;;;1.30;;
78288;SDS011;67539;48.752;12.922;2023-04-03T09:35:38;1.27;;;1.27;;
78288;SDS011;67539;48.752;12.922;2023-04-03T09:38:16;2.70;;;2.50;;
78288;SDS011;67539;48.752;12.922;2023-04-03T09:40:47;2.00;;;1.90;;
78288;SDS011;67539;48.752;12.922;2023-04-03T09:43:21;1.40;;;1.30;;
78288;SDS011;67539;48.752;12.922;2023-04-03T09:45:52;1.70;;;1.60;;
78288;SDS011;67539;48.752;12.922;2023-04-03T09:48:22;1.57;;;1.10;;
78288;SDS011;67539;48.752;12.922;2023-04-03T09:50:55;2.60;;;2.27;;
78288;SDS011;67539;48.752;12.922;2023-04-03T09:53:28;3.17;;;1.93;;
78288;SDS011;67539;48.752;12.922;2023-04-03T09:55:58;1.40;;;1.30;;
78288;SDS011;67539;48.752;12.922;2023-04-03T09:58:30;2.00;;;1.30;;
78288;SDS011;67539;48.752;12.922;2023-04-03T10:01:23;1.07;;;1.07;;
78288;SDS011;67539;48.752;12.922;2023-04-03T10:04:07;1.30;;;1.20;;
78288;SDS011;67539;48.752;12.922;2023-04-03T10:06:38;1.83;;;1.73;;
78288;SDS011;67539;48.752;12.922;2023-04-03T10:09:18;1.20;;;1.20;;
78288;SDS011;67539;48.752;12.922;2023-04-03T10:12:02;1.60;;;1.50;;
78288;SDS011;67539;48.752;12.922;2023-04-03T10:14:32;1.60;;;1.50;;
78288;SDS011;67539;48.752;12.922;2023-04-03T10:17:03;1.70;;;1.10;;
78288;SDS011;67539;48.752;12.922;2023-04-03T10:19:41;2.37;;;2.00;;
78288;SDS011;67539;48.752;12.922;2023-04-03T10:22:15;1.50;;;1.40;;
78288;SDS011;67539;48.752;12.922;2023-04-03T10:25:00;2.13;;;2.03;;
78288;SDS011;67539;48.752;12.922;2023-04-03T10:27:34;1.90;;;1.80;;
78288;SDS011;67539;48.752;12.922;2023-04-03T10:30:10;2.10;;;1.33;;
78288;SDS011;67539;48.752;12.922;2023-04-03T10:32:58;2.60;;;1.90;;
78288;SDS011;67539;48.752;12.922;2023-04-03T10:35:39;5.27;;;1.80;;
78288;SDS011;67539;48.752;12.922;2023-04-03T10:38:18;1.33;;;1.17;;
78288;SDS011;67539;48.752;12.922;2023-04-03T10:40:54;9.40;;;5.97;;
78288;SDS011;67539;48.752;12.922;2023-04-03T10:43:29;8.57;;;5.30;;
78288;SDS011;67539;48.752;12.922;2023-04-03T10:46:04;3.70;;;3.40;;
78288;SDS011;67539;48.752;12.922;2023-04-03T10:48:41;7.47;;;3.77;;
78288;SDS011;67539;48.752;12.922;2023-04-03T10:51:22;16.63;;;9.60;;
78288;SDS011;67539;48.752;12.922;2023-04-03T10:53:56;35.97;;;20.73;;
78288;SDS011;67539;48.752;12.922;2023-04-03T10:56:34;7.50;;;6.07;;
78288;SDS011;67539;48.752;12.922;2023-04-03T10:59:14;22.30;;;11.13;;
78288;SDS011;67539;48.752;12.922;2023-04-03T11:01:48;5.10;;;3.80;;
78288;SDS011;67539;48.752;12.922;2023-04-03T11:04:21;6.20;;;4.50;;
78288;SDS011;67539;48.752;12.922;2023-04-03T11:06:54;8.70;;;6.53;;
78288;SDS011;67539;48.752;12.922;2023-04-03T11:09:27;1.50;;;1.40;;
78288;SDS011;67539;48.752;12.922;2023-04-03T11:12:00;2.17;;;2.07;;
78288;SDS011;67539;48.752;12.922;2023-04-03T11:14:32;2.27;;;1.60;;
78288;SDS011;67539;48.752;12.922;2023-04-03T11:17:04;1.37;;;1.27;;
78288;SDS011;67539;48.752;12.922;2023-04-03T11:19:39;3.27;;;1.70;;
78288;SDS011;67539;48.752;12.922;2023-04-03T11:22:14;1.70;;;1.27;;
78288;SDS011;67539;48.752;12.922;2023-04-03T11:24:51;1.50;;;1.40;;
78288;SDS011;67539;48.752;12.922;2023-04-03T11:27:27;1.83;;;1.67;;
78288;SDS011;67539;48.752;12.922;2023-04-03T11:30:02;1.50;;;1.40;;
78288;SDS011;67539;48.752;12.922;2023-04-03T11:32:45;1.30;;;1.20;;
78288;SDS011;67539;48.752;12.922;2023-04-03T11:35:27;3.33;;;1.40;;
78288;SDS011;67539;48.752;12.922;2023-04-03T11:37:55;3.73;;;2.20;;
78288;SDS011;67539;48.752;12.922;2023-04-03T11:40:27;1.60;;;1.50;;
78288;SDS011;67539;48.752;12.922;2023-04-03T11:43:04;1.43;;;1.33;;
78288;SDS011;67539;48.752;12.922;2023-04-03T11:45:36;1.60;;;1.50;;
78288;SDS011;67539;48.752;12.922;2023-04-03T11:48:06;1.20;;;1.20;;
78288;SDS011;67539;48.752;12.922;2023-04-03T12:03:29;1.60;;;1.50;;
78288;SDS011;67539;48.752;12.922;2023-04-03T12:12:29;1.93;;;1.83;;
78288;SDS011;67539;48.752;12.922;2023-04-03T12:15:21;2.60;;;2.40;;
78288;SDS011;67539;48.752;12.922;2023-04-03T12:21:19;2.20;;;2.00;;
78288;SDS011;67539;48.752;12.922;2023-04-03T12:24:04;2.83;;;1.87;;
78288;SDS011;67539;48.752;12.922;2023-04-03T12:26:50;2.30;;;2.13;;
78288;SDS011;67539;48.752;12.922;2023-04-03T12:29:33;2.90;;;1.93;;
78288;SDS011;67539;48.752;12.922;2023-04-03T12:32:11;1.90;;;1.80;;
78288;SDS011;67539;48.752;12.922;2023-04-03T12:34:54;4.47;;;2.77;;
78288;SDS011;67539;48.752;12.922;2023-04-03T12:37:57;2.13;;;2.03;;
78288;SDS011;67539;48.752;12.922;2023-04-03T12:40:45;2.27;;;2.17;;
78288;SDS011;67539;48.752;12.922;2023-04-03T12:43:37;2.10;;;2.00;;
78288;SDS011;67539;48.752;12.922;2023-04-03T12:46:14;2.33;;;2.23;;
78288;SDS011;67539;48.752;12.922;2023-04-03T12:48:47;1.93;;;1.80;;
78288;SDS011;67539;48.752;12.922;2023-04-03T12:51:18;2.87;;;2.53;;
78288;SDS011;67539;48.752;12.922;2023-04-03T12:53:50;3.33;;;1.90;;
78288;SDS011;67539;48.752;12.922;2023-04-03T12:56:23;3.70;;;2.00;;
78288;SDS011;67539;48.752;12.922;2023-04-03T12:58:53;3.77;;;1.97;;
78288;SDS011;67539;48.752;12.922;2023-04-03T13:01:24;2.10;;;2.00;;
78288;SDS011;67539;48.752;12.922;2023-04-03T13:03:53;2.30;;;2.20;;
78288;SDS011;67539;48.752;12.922;2023-04-03T13:06:23;2.40;;;2.30;;
78288;SDS011;67539;48.752;12.922;2023-04-03T13:08:56;3.17;;;2.50;;
78288;SDS011;67539;48.752;12.922;2023-04-03T13:11:26;2.30;;;2.10;;
78288;SDS011;67539;48.752;12.922;2023-04-03T13:14:00;2.83;;;2.67;;
78288;SDS011;67539;48.752;12.922;2023-04-03T13:16:29;2.47;;;2.27;;
78288;SDS011;67539;48.752;12.922;2023-04-03T13:18:58;3.13;;;2.93;;
78288;SDS011;67539;48.752;12.922;2023-04-03T13:21:27;2.60;;;2.50;;
78288;SDS011;67539;48.752;12.922;2023-04-03T13:24:00;5.17;;;2.37;;
78288;SDS011;67539;48.752;12.922;2023-04-03T13:26:40;2.30;;;2.20;;
78288;SDS011;67539;48.752;12.922;2023-04-03T13:29:17;3.57;;;2.50;;
78288;SDS011;67539;48.752;12.922;2023-04-03T13:31:56;3.80;;;2.70;;
78288;SDS011;67539;48.752;12.922;2023-04-03T13:34:26;2.40;;;2.30;;
78288;SDS011;67539;48.752;12.922;2023-04-03T13:36:56;2.80;;;2.60;;
78288;SDS011;67539;48.752;12.922;2023-04-03T13:39:28;2.80;;;2.60;;
78288;SDS011;67539;48.752;12.922;2023-04-03T13:41:57;2.90;;;2.67;;
78288;SDS011;67539;48.752;12.922;2023-04-03T13:44:30;2.53;;;2.40;;
78288;SDS011;67539;48.752;12.922;2023-04-03T13:47:01;10.60;;;3.17;;
78288;SDS011;67539;48.752;12.922;2023-04-03T13:49:44;2.33;;;2.23;;
78288;SDS011;67539;48.752;12.922;2023-04-03T13:52:23;2.00;;;1.90;;
78288;SDS011;67539;48.752;12.922;2023-04-03T13:54:59;2.87;;;2.57;;
78288;SDS011;67539;48.752;12.922;2023-04-03T13:57:34;3.03;;;2.40;;
78288;SDS011;67539;48.752;12.922;2023-04-03T14:02:53;3.17;;;2.60;;
78288;SDS011;67539;48.752;12.922;2023-04-03T14:05:23;3.53;;;2.40;;
78288;SDS011;67539;48.752;12.922;2023-04-03T14:07:53;2.67;;;2.57;;
78288;SDS011;67539;48.752;12.922;2023-04-03T14:10:23;2.50;;;2.27;;
78288;SDS011;67539;48.752;12.922;2023-04-03T14:12:51;2.17;;;2.07;;
78288;SDS011;67539;48.752;12.922;2023-04-03T14:15:20;2.47;;;2.27;;
78288;SDS011;67539;48.752;12.922;2023-04-03T14:17:51;2.00;;;1.90;;
78288;SDS011;67539;48.752;12.922;2023-04-03T14:20:20;2.80;;;2.60;;
78288;SDS011;67539;48.752;12.922;2023-04-03T14:22:52;2.30;;;2.20;;
78288;SDS011;67539;48.752;12.922;2023-04-03T14:25:21;2.53;;;2.43;;
78288;SDS011;67539;48.752;12.922;2023-04-03T14:27:52;2.50;;;2.40;;
78288;SDS011;67539;48.752;12.922;2023-04-03T14:30:22;2.70;;;2.30;;
78288;SDS011;67539;48.752;12.922;2023-04-03T14:32:52;3.40;;;2.80;;
78288;SDS011;67539;48.752;12.922;2023-04-03T14:35:20;2.73;;;2.57;;
78288;SDS011;67539;48.752;12.922;2023-04-03T14:37:49;3.37;;;2.50;;
78288;SDS011;67539;48.752;12.922;2023-04-03T14:40:20;3.00;;;2.90;;
78288;SDS011;67539;48.752;12.922;2023-04-03T14:42:52;3.40;;;2.70;;
78288;SDS011;67539;48.752;12.922;2023-04-03T14:45:22;2.50;;;2.30;;
78288;SDS011;67539;48.752;12.922;2023-04-03T14:47:51;2.80;;;2.60;;
78288;SDS011;67539;48.752;12.922;2023-04-03T14:50:22;2.87;;;2.57;;
78288;SDS011;67539;48.752;12.922;2023-04-03T14:52:53;2.83;;;2.70;;
78288;SDS011;67539;48.752;12.922;2023-04-03T14:55:23;2.40;;;2.30;;
78288;SDS011;67539;48.752;12.922;2023-04-03T14:57:53;2.80;;;2.60;;
78288;SDS011;67539;48.752;12.922;2023-04-03T15:00:21;3.40;;;3.10;;
78288;SDS011;67539;48.752;12.922;2023-04-03T15:02:50;3.10;;;2.70;;
78288;SDS011;67539;48.752;12.922;2023-04-03T15:05:18;3.07;;;2.87;;
78288;SDS011;67539;48.752;12.922;2023-04-03T15:07:47;2.53;;;2.43;;
78288;SDS011;67539;48.752;12.922;2023-04-03T15:10:19;4.53;;;2.63;;
78288;SDS011;67539;48.752;12.922;2023-04-03T15:12:50;3.30;;;3.10;;
78288;SDS011;67539;48.752;12.922;2023-04-03T15:15:20;2.73;;;2.63;;
78288;SDS011;67539;48.752;12.922;2023-04-03T15:17:50;2.90;;;2.70;;
78288;SDS011;67539;48.752;12.922;2023-04-03T15:20:21;2.50;;;2.40;;
78288;SDS011;67539;48.752;12.922;2023-04-03T15:22:50;2.37;;;2.27;;
78288;SDS011;67539;48.752;12.922;2023-04-03T15:25:18;3.03;;;2.90;;